Time;durP1;ratioP1;P1;durP2;ratioP2;P2;SDS_P1;SDS_P2;PMS_P1;PMS_P2;Temp;Humidity;BMP_temperature;BMP_pressure;BME280_temperature;BME280_humidity;BME280_pressure;Samples;Min_cycle;Max_cycle;Signal;HPM_P1;HPM_P2
2022/01/08 00:00:32;;;;;;;11.05;2.10;;;;;;;4.71;100.00;100977.09;5037293;28;20440;-71
2022/01/08 00:02:58;;;;;;;9.57;1.83;;;;;;;4.83;100.00;100982.50;5065014;28;20024;-71
2022/01/08 00:05:23;;;;;;;8.07;1.95;;;;;;;4.72;100.00;100962.47;5059393;28;20071;-70
2022/01/08 00:07:50;;;;;;;6.80;1.70;;;;;;;4.77;100.00;100976.16;5054824;28;20054;-71
2022/01/08 00:10:16;;;;;;;6.78;2.05;;;;;;;4.77;100.00;100980.72;5028381;28;20128;-71
2022/01/08 00:12:43;;;;;;;11.63;2.72;;;;;;;4.74;100.00;100983.97;5051645;28;20042;-69
2022/01/08 00:15:08;;;;;;;7.75;2.00;;;;;;;4.68;100.00;100982.19;5062454;28;20552;-70
2022/01/08 00:17:36;;;;;;;9.05;1.88;;;;;;;4.77;100.00;100978.88;5058231;28;20032;-71
2022/01/08 00:20:04;;;;;;;8.10;2.05;;;;;;;4.71;100.00;100987.97;5042818;28;20405;-70
2022/01/08 00:22:29;;;;;;;8.25;1.85;;;;;;;4.78;100.00;100985.94;5059440;28;20351;-71
2022/01/08 00:24:55;;;;;;;12.13;2.25;;;;;;;4.78;100.00;100996.78;5025002;28;20037;-70
2022/01/08 00:27:22;;;;;;;8.85;2.10;;;;;;;4.74;100.00;101003.78;5028354;28;20094;-70
2022/01/08 00:29:48;;;;;;;10.35;2.10;;;;;;;4.79;100.00;101003.88;5044938;28;20043;-72
2022/01/08 00:32:14;;;;;;;8.25;1.92;;;;;;;4.84;100.00;100997.75;5055395;28;20037;-72
2022/01/08 00:34:41;;;;;;;6.43;1.92;;;;;;;4.89;100.00;100994.31;5043111;28;20063;-71
2022/01/08 00:37:07;;;;;;;6.22;1.80;;;;;;;4.84;100.00;100989.59;5057238;28;20028;-71
2022/01/08 00:39:33;;;;;;;8.18;1.80;;;;;;;4.85;100.00;100993.13;5062550;28;20479;-71
2022/01/08 00:41:58;;;;;;;5.40;1.77;;;;;;;4.89;100.00;100991.59;5043720;28;20546;-69
2022/01/08 00:44:24;;;;;;;7.32;2.00;;;;;;;4.80;100.00;100988.41;5026748;28;20036;-70
2022/01/08 00:46:49;;;;;;;14.23;2.03;;;;;;;4.95;100.00;100968.88;5062630;28;20024;-71
2022/01/08 00:49:15;;;;;;;11.45;1.80;;;;;;;4.86;100.00;100970.34;5061887;28;20418;-72
2022/01/08 00:51:41;;;;;;;8.70;1.90;;;;;;;5.04;100.00;100978.31;5043039;28;20541;-70
2022/01/08 00:54:07;;;;;;;8.70;1.75;;;;;;;4.93;100.00;100992.75;5026225;28;20032;-70
2022/01/08 00:56:33;;;;;;;9.70;2.15;;;;;;;4.81;100.00;100991.97;5023759;28;20127;-71
2022/01/08 00:58:58;;;;;;;9.23;1.73;;;;;;;4.82;100.00;100985.44;5024316;28;20140;-70
2022/01/08 01:01:23;;;;;;;9.68;2.05;;;;;;;4.74;100.00;100990.22;5054199;28;20029;-70
2022/01/08 01:03:49;;;;;;;6.80;1.80;;;;;;;4.85;100.00;100990.41;5062630;28;20166;-70
2022/01/08 01:06:14;;;;;;;15.80;3.28;;;;;;;4.76;100.00;101000.84;5044900;28;20044;-70
2022/01/08 01:08:43;;;;;;;11.55;2.92;;;;;;;4.85;100.00;101004.81;5060787;28;20534;-71
2022/01/08 01:11:09;;;;;;;9.93;2.30;;;;;;;4.67;100.00;101003.06;5063273;28;20055;-71
2022/01/08 01:13:34;;;;;;;6.60;1.80;;;;;;;4.70;100.00;100983.59;5061856;28;20392;-70
2022/01/08 01:16:02;;;;;;;6.43;1.77;;;;;;;4.73;100.00;100993.16;5025641;28;20450;-72
2022/01/08 01:18:27;;;;;;;12.30;2.10;;;;;;;4.91;100.00;100984.84;5052346;28;20024;-71
2022/01/08 01:20:53;;;;;;;8.75;2.08;;;;;;;4.81;100.00;101003.66;5042971;28;20037;-70
2022/01/08 01:23:26;;;;;;;5.80;2.05;;;;;;;4.82;100.00;100991.72;5048998;28;20111;-71
2022/01/08 01:25:56;;;;;;;6.55;2.03;;;;;;;4.79;100.00;100998.47;5049601;28;20400;-71
2022/01/08 01:47:10;;;;;;;9.77;1.70;;;;;;;4.74;100.00;101002.97;5054642;28;20123;-71
2022/01/08 01:49:41;;;;;;;8.45;2.10;;;;;;;4.64;100.00;101013.59;5025160;28;20108;-71
2022/01/08 01:52:08;;;;;;;10.40;2.53;;;;;;;4.66;100.00;101020.44;5042114;28;20763;-72
2022/01/08 01:54:35;;;;;;;5.63;1.88;;;;;;;4.56;100.00;101025.66;5049515;28;20050;-71
2022/01/08 01:57:03;;;;;;;6.00;2.00;;;;;;;4.67;100.00;101029.41;5044316;28;20072;-71
2022/01/08 01:59:31;;;;;;;9.52;2.17;;;;;;;4.70;100.00;101032.47;5051263;28;20086;-72
2022/01/08 02:01:57;;;;;;;10.65;2.03;;;;;;;4.75;100.00;101037.19;5042351;28;20115;-72
2022/01/08 02:04:23;;;;;;;10.23;2.65;;;;;;;4.76;100.00;101034.25;5045403;28;20058;-73
2022/01/08 02:06:50;;;;;;;10.38;2.38;;;;;;;4.79;100.00;101033.78;5041262;28;20034;-69
2022/01/08 02:09:15;;;;;;;7.47;2.30;;;;;;;4.86;100.00;101030.09;5041418;28;20047;-69
2022/01/08 02:12:00;;;;;;;8.10;1.98;;;;;;;4.73;100.00;101020.31;5058010;28;20036;-71
2022/01/08 02:14:28;;;;;;;5.63;1.80;;;;;;;4.72;100.00;101024.09;5056566;28;20028;-71
2022/01/08 02:16:54;;;;;;;11.75;2.47;;;;;;;4.77;100.00;101041.34;5059989;28;20093;-71
2022/01/08 02:19:20;;;;;;;8.05;2.25;;;;;;;4.91;100.00;101035.63;5061838;28;20028;-71
2022/01/08 02:21:52;;;;;;;6.82;2.10;;;;;;;4.85;100.00;101033.88;5062182;28;20028;-70
2022/01/08 02:24:18;;;;;;;11.25;2.50;;;;;;;4.58;100.00;101026.25;5060913;28;20061;-69
2022/01/08 02:26:43;;;;;;;9.60;2.00;;;;;;;4.80;100.00;101034.59;5050492;28;20368;-71
2022/01/08 02:29:13;;;;;;;11.90;2.20;;;;;;;4.78;100.00;101034.81;5039565;28;20029;-70
2022/01/08 02:31:39;;;;;;;10.48;2.42;;;;;;;4.73;100.00;101017.59;5044465;28;20155;-70
2022/01/08 02:34:05;;;;;;;8.75;2.15;;;;;;;4.56;100.00;101028.38;5041331;28;20041;-70
2022/01/08 02:36:31;;;;;;;7.38;2.05;;;;;;;4.67;100.00;101019.38;5052550;28;20067;-70
2022/01/08 02:38:56;;;;;;;8.77;1.90;;;;;;;4.72;100.00;101014.06;5030441;28;20060;-71
2022/01/08 02:41:22;;;;;;;6.53;1.88;;;;;;;4.60;100.00;101011.34;5048826;28;20067;-70
2022/01/08 02:43:52;;;;;;;7.93;1.90;;;;;;;4.68;100.00;101017.50;5041732;28;20029;-70
2022/01/08 02:46:19;;;;;;;8.73;1.83;;;;;;;4.52;100.00;101019.03;5025327;28;20056;-71
2022/01/08 02:48:44;;;;;;;9.57;2.15;;;;;;;4.61;100.00;101023.06;5030622;28;20029;-71
2022/01/08 02:51:09;;;;;;;9.82;1.67;;;;;;;4.66;100.00;101009.59;5025804;28;20121;-71
2022/01/08 02:53:35;;;;;;;10.48;1.95;;;;;;;4.66;100.00;101015.03;5054863;28;20040;-70
2022/01/08 02:56:00;;;;;;;8.52;1.55;;;;;;;4.74;100.00;101014.66;5040853;28;20044;-70
2022/01/08 02:58:28;;;;;;;7.75;1.75;;;;;;;4.64;100.00;101016.31;5028853;28;20025;-71
2022/01/08 03:00:56;;;;;;;11.55;1.83;;;;;;;4.71;100.00;101015.13;5027850;28;20028;-69
2022/01/08 03:03:22;;;;;;;11.82;2.10;;;;;;;4.75;100.00;101010.84;5029182;28;20039;-70
2022/01/08 03:05:47;;;;;;;7.15;1.90;;;;;;;4.75;100.00;101008.13;5052404;28;20095;-70
2022/01/08 03:08:12;;;;;;;11.35;2.35;;;;;;;4.80;100.00;101015.56;5046972;28;20098;-70
2022/01/08 03:10:38;;;;;;;10.80;2.00;;;;;;;4.72;100.00;101007.78;5027375;28;20491;-71
2022/01/08 03:13:05;;;;;;;9.57;2.10;;;;;;;4.67;100.00;100999.53;5042494;28;20456;-70
2022/01/08 03:15:34;;;;;;;7.45;1.60;;;;;;;4.63;100.00;101004.63;5054035;28;20027;-71
2022/01/08 03:17:59;;;;;;;8.27;1.70;;;;;;;4.75;100.00;101002.69;5057414;28;20021;-72
2022/01/08 03:20:25;;;;;;;5.93;1.83;;;;;;;4.52;100.00;100995.41;5046800;28;20037;-70
2022/01/08 03:22:51;;;;;;;7.43;2.08;;;;;;;4.62;100.00;101002.97;5030682;28;20040;-71
2022/01/08 03:25:17;;;;;;;6.00;1.80;;;;;;;4.61;100.00;100993.19;5027216;28;20270;-72
2022/01/08 03:27:48;;;;;;;8.05;1.85;;;;;;;4.41;100.00;101005.25;5052560;28;20036;-71
2022/01/08 03:30:13;;;;;;;5.47;2.00;;;;;;;4.39;100.00;101006.53;5058641;28;20494;-72
2022/01/08 03:32:39;;;;;;;11.35;2.10;;;;;;;4.48;100.00;100990.72;5064369;28;20048;-72
2022/01/08 03:35:06;;;;;;;5.90;1.63;;;;;;;4.51;100.00;100990.22;5064922;28;20029;-72
2022/01/08 03:37:31;;;;;;;8.25;1.90;;;;;;;4.45;100.00;100996.63;5051561;28;20116;-70
2022/01/08 03:39:58;;;;;;;10.82;2.42;;;;;;;4.54;100.00;101006.03;5011890;28;20058;-71
2022/01/08 03:42:23;;;;;;;6.32;1.90;;;;;;;4.43;100.00;101002.28;5045082;28;20037;-70
2022/01/08 03:44:49;;;;;;;7.22;2.33;;;;;;;4.48;100.00;101005.13;5041912;28;20121;-70
2022/01/08 03:49:52;;;;;;;11.15;2.38;;;;;;;4.38;100.00;101003.00;5061748;28;20036;-71
2022/01/08 03:52:17;;;;;;;9.57;2.13;;;;;;;4.51;100.00;101010.09;5045908;28;20072;-70
2022/01/08 03:54:43;;;;;;;8.23;2.67;;;;;;;4.50;100.00;101007.59;5054373;28;20557;-70
2022/01/08 03:57:08;;;;;;;6.75;1.85;;;;;;;4.16;100.00;101019.03;5051889;28;20486;-70
2022/01/08 03:59:34;;;;;;;7.93;1.80;;;;;;;4.40;100.00;101008.19;5054330;28;20142;-69
2022/01/08 04:02:01;;;;;;;11.63;2.53;;;;;;;4.39;100.00;101009.25;5035277;28;20533;-71
2022/01/08 04:04:26;;;;;;;10.25;2.13;;;;;;;4.44;100.00;101005.81;5063551;28;20082;-70
2022/01/08 04:06:52;;;;;;;9.63;2.03;;;;;;;4.46;100.00;101009.13;5046935;28;20479;-71
2022/01/08 04:09:18;;;;;;;9.95;2.42;;;;;;;4.34;100.00;101018.09;5045110;28;20151;-70
2022/01/08 04:11:43;;;;;;;6.32;2.05;;;;;;;4.27;100.00;101011.16;5063138;28;20102;-70
2022/01/08 04:14:13;;;;;;;10.82;2.15;;;;;;;4.32;100.00;101017.50;5059498;28;20127;-70
2022/01/08 04:16:42;;;;;;;10.85;2.08;;;;;;;4.29;100.00;101026.13;5024978;28;20111;-71
2022/01/08 04:19:08;;;;;;;9.93;2.30;;;;;;;4.21;100.00;101023.75;5027190;28;20029;-71
2022/01/08 04:24:07;;;;;;;10.40;2.00;;;;;;;4.29;100.00;101017.97;5027307;28;20036;-71
2022/01/08 04:26:32;;;;;;;10.57;2.00;;;;;;;4.20;100.00;101027.56;5057619;28;20036;-71
2022/01/08 04:28:58;;;;;;;9.02;1.98;;;;;;;4.23;100.00;101027.06;5063549;28;20036;-71
2022/01/08 04:31:24;;;;;;;5.88;1.98;;;;;;;4.13;100.00;101024.09;5059581;28;20117;-71
2022/01/08 04:33:51;;;;;;;5.75;2.05;;;;;;;4.32;100.00;101032.97;5058972;28;20396;-71
2022/01/08 04:36:16;;;;;;;7.80;1.70;;;;;;;4.29;100.00;101028.03;5061994;28;20032;-72
2022/01/08 04:38:43;;;;;;;5.32;2.10;;;;;;;4.27;100.00;101041.00;5063248;28;20380;-70
2022/01/08 04:41:08;;;;;;;8.02;2.10;;;;;;;4.33;100.00;101043.59;5048816;28;20473;-69
2022/01/08 04:43:37;;;;;;;5.18;1.80;;;;;;;4.35;100.00;101046.09;5061560;28;20047;-70
2022/01/08 04:46:03;;;;;;;8.50;2.03;;;;;;;4.24;100.00;101053.97;5047504;28;20160;-71
2022/01/08 04:48:29;;;;;;;7.72;2.00;;;;;;;4.20;100.00;101050.09;5044060;28;20037;-73
2022/01/08 04:50:54;;;;;;;8.32;2.22;;;;;;;4.28;100.00;101046.19;5045386;28;20397;-70
2022/01/08 04:53:20;;;;;;;7.75;2.70;;;;;;;4.46;100.00;101039.00;5061168;28;20506;-69
2022/01/08 04:55:46;;;;;;;12.07;2.03;;;;;;;4.30;100.00;101044.06;5063165;28;20502;-70
2022/01/08 04:58:11;;;;;;;7.22;2.03;;;;;;;4.39;100.00;101036.41;5047487;28;20427;-72
2022/01/08 05:00:37;;;;;;;10.07;2.55;;;;;;;4.34;100.00;101031.66;5060303;28;20207;-71
2022/01/08 05:03:03;;;;;;;9.23;2.40;;;;;;;4.23;100.00;101027.91;5064513;28;20033;-70
2022/01/08 05:05:28;;;;;;;8.68;2.20;;;;;;;4.25;100.00;101035.81;5047551;28;20390;-71
2022/01/08 05:07:54;;;;;;;8.75;2.67;;;;;;;4.37;100.00;101027.66;5047043;28;20045;-69
2022/01/08 05:10:20;;;;;;;5.57;1.77;;;;;;;4.27;100.00;101032.88;5044224;28;20033;-71
2022/01/08 05:12:46;;;;;;;7.90;2.03;;;;;;;4.21;100.00;101035.47;5041346;28;20052;-71
2022/01/08 05:15:11;;;;;;;8.48;2.42;;;;;;;4.11;100.00;101024.34;5040174;28;20095;-71
2022/01/08 05:17:39;;;;;;;7.10;2.22;;;;;;;4.34;100.00;101026.25;5042969;28;20033;-70
2022/01/08 05:20:10;;;;;;;8.23;1.88;;;;;;;4.49;100.00;101033.09;5046278;28;20021;-71
2022/01/08 05:22:51;;;;;;;10.27;2.15;;;;;;;4.38;100.00;101035.56;5054601;28;20189;-71
2022/01/08 05:25:19;;;;;;;8.52;2.97;;;;;;;4.45;100.00;101051.75;5063460;28;20039;-70
2022/01/08 05:27:45;;;;;;;8.43;2.30;;;;;;;4.15;100.00;101062.69;5061783;28;20032;-71
2022/01/08 05:30:13;;;;;;;9.25;2.75;;;;;;;4.61;100.00;101050.22;5049052;28;20064;-71
2022/01/08 05:32:39;;;;;;;7.85;2.17;;;;;;;4.56;100.00;101052.81;5042279;28;20109;-71
2022/01/08 05:35:04;;;;;;;6.07;2.13;;;;;;;4.51;100.00;101047.25;5042983;28;20267;-70
2022/01/08 05:37:30;;;;;;;11.18;2.28;;;;;;;4.57;100.00;101057.16;5032066;28;20079;-70
2022/01/08 05:39:56;;;;;;;9.88;2.20;;;;;;;4.49;100.00;101050.19;5030913;28;20028;-69
2022/01/08 05:42:22;;;;;;;8.18;1.85;;;;;;;4.49;100.00;101063.78;5049117;28;20025;-70
2022/01/08 05:44:47;;;;;;;6.38;2.20;;;;;;;4.56;100.00;101060.97;5038687;28;20133;-71
2022/01/08 05:47:13;;;;;;;9.77;1.90;;;;;;;4.74;100.00;101057.28;5029118;28;20028;-71
2022/01/08 05:49:39;;;;;;;6.25;2.08;;;;;;;4.79;100.00;101049.25;5052825;28;20029;-71
2022/01/08 05:52:05;;;;;;;7.00;1.90;;;;;;;4.60;100.00;101057.50;5042841;28;20084;-72
2022/01/08 05:54:30;;;;;;;11.48;2.10;;;;;;;4.77;100.00;101056.78;5055106;28;20440;-70
2022/01/08 05:56:55;;;;;;;11.93;2.00;;;;;;;4.71;100.00;101052.34;5022849;28;20119;-71
2022/01/08 05:59:26;;;;;;;7.38;1.98;;;;;;;4.68;100.00;101053.63;5049867;28;20391;-72
2022/01/08 06:01:52;;;;;;;7.57;1.80;;;;;;;4.70;100.00;101040.63;5050541;28;20047;-70
2022/01/08 06:04:18;;;;;;;6.72;1.90;;;;;;;4.76;100.00;101036.16;5061238;28;20028;-70
2022/01/08 06:06:44;;;;;;;7.32;1.83;;;;;;;4.64;100.00;101011.72;5045662;28;20041;-72
2022/01/08 06:09:10;;;;;;;7.65;2.50;;;;;;;4.73;100.00;101023.84;5032372;28;20068;-71
2022/01/08 06:11:36;;;;;;;7.30;2.13;;;;;;;4.78;100.00;101032.09;5061819;28;20078;-70
2022/01/08 06:14:02;;;;;;;10.70;1.88;;;;;;;4.79;100.00;101030.25;5064067;28;20032;-70
2022/01/08 06:16:33;;;;;;;9.20;2.70;;;;;;;4.67;100.00;101019.38;5042821;28;20032;-69
2022/01/08 06:19:00;;;;;;;6.63;1.90;;;;;;;4.68;100.00;101023.75;5046496;28;20055;-71
2022/01/08 06:21:26;;;;;;;7.65;1.90;;;;;;;4.43;100.00;101018.59;5059593;28;20105;-70
2022/01/08 06:23:51;;;;;;;10.45;2.10;;;;;;;4.62;100.00;101018.44;5063314;28;20311;-70
2022/01/08 06:26:16;;;;;;;7.07;2.33;;;;;;;4.62;100.00;101019.25;5031779;28;20167;-70
2022/01/08 06:28:42;;;;;;;6.72;1.95;;;;;;;4.60;100.00;101013.25;5037638;28;20108;-70
2022/01/08 06:31:07;;;;;;;6.85;2.08;;;;;;;4.54;100.00;101015.03;5054314;28;20064;-70
2022/01/08 06:33:33;;;;;;;11.77;2.58;;;;;;;4.57;100.00;101017.25;5053491;28;20032;-70
2022/01/08 06:35:58;;;;;;;5.50;1.85;;;;;;;4.58;100.00;101012.66;5006876;28;20032;-70
2022/01/08 06:38:23;;;;;;;6.40;1.60;;;;;;;4.57;100.00;101016.44;5040170;28;20563;-70
2022/01/08 06:40:49;;;;;;;8.70;1.80;;;;;;;4.67;100.00;101013.94;5045179;28;20028;-70
2022/01/08 06:43:15;;;;;;;8.27;1.90;;;;;;;4.65;100.00;101007.94;5042409;28;20037;-71
2022/01/08 06:45:41;;;;;;;7.05;2.17;;;;;;;4.65;100.00;101007.94;5047593;28;20044;-70
2022/01/08 06:48:06;;;;;;;9.05;2.13;;;;;;;4.67;100.00;101004.97;5051119;28;20077;-71
2022/01/08 06:50:32;;;;;;;10.75;2.45;;;;;;;4.53;100.00;101004.41;5040281;28;20140;-70
2022/01/08 06:52:57;;;;;;;8.23;2.47;;;;;;;4.59;100.00;100998.00;5035333;28;20686;-70
2022/01/08 06:55:23;;;;;;;4.00;1.77;;;;;;;4.57;100.00;101000.97;5049468;28;20056;-71
2022/01/08 06:57:48;;;;;;;8.07;1.95;;;;;;;4.49;100.00;100989.66;5068206;28;20029;-71
2022/01/08 07:00:14;;;;;;;7.15;1.77;;;;;;;4.56;100.00;100996.63;5068994;28;20107;-71
2022/01/08 07:02:39;;;;;;;8.68;2.10;;;;;;;4.50;100.00;101005.69;5050265;28;20063;-71
2022/01/08 07:05:05;;;;;;;7.13;1.70;;;;;;;4.54;100.00;100995.19;5069474;28;20352;-71
2022/01/08 07:07:30;;;;;;;6.85;2.05;;;;;;;4.58;100.00;100994.47;5069148;28;20066;-71
2022/01/08 07:09:56;;;;;;;8.65;1.92;;;;;;;4.63;100.00;100998.38;5069074;28;20024;-70
2022/01/08 07:12:22;;;;;;;6.22;1.98;;;;;;;4.67;100.00;100986.78;5050409;28;20078;-69
2022/01/08 07:14:47;;;;;;;7.68;2.10;;;;;;;4.69;100.00;100990.09;5057670;28;20041;-70
2022/01/08 07:17:13;;;;;;;3.53;1.60;;;;;;;4.70;100.00;100980.88;5049808;28;20570;-70
2022/01/08 07:19:38;;;;;;;6.82;1.70;;;;;;;4.74;100.00;100982.06;5028496;28;20091;-70
2022/01/08 07:22:03;;;;;;;5.97;1.90;;;;;;;4.69;100.00;100979.25;5063741;28;20465;-69
2022/01/08 07:24:29;;;;;;;7.68;2.22;;;;;;;4.73;100.00;100982.28;5044985;28;20039;-69
2022/01/08 07:26:54;;;;;;;6.55;2.35;;;;;;;4.71;100.00;100987.97;5031563;28;20554;-69
2022/01/08 07:29:21;;;;;;;3.97;1.83;;;;;;;4.63;100.00;100985.63;5054899;28;20043;-69
2022/01/08 07:31:46;;;;;;;9.93;2.08;;;;;;;4.61;100.00;100971.47;5058276;28;20040;-69
2022/01/08 07:34:12;;;;;;;5.18;1.80;;;;;;;4.68;100.00;100972.16;5047393;28;20032;-69
2022/01/08 07:36:37;;;;;;;9.63;2.00;;;;;;;4.68;100.00;100974.03;5050101;28;20045;-69
2022/01/08 07:39:04;;;;;;;5.53;1.92;;;;;;;4.61;100.00;100971.47;5034976;28;20036;-69
2022/01/08 07:41:29;;;;;;;9.38;2.35;;;;;;;4.54;100.00;100968.03;5067452;28;20115;-70
2022/01/08 07:43:54;;;;;;;6.25;1.80;;;;;;;4.61;100.00;100974.19;5065137;28;20165;-70
2022/01/08 07:46:21;;;;;;;5.72;2.67;;;;;;;4.58;100.00;100978.19;5047767;28;20047;-70
2022/01/08 07:48:47;;;;;;;10.43;2.03;;;;;;;4.65;100.00;100980.75;5065864;28;20025;-72
2022/01/08 07:51:12;;;;;;;7.03;1.90;;;;;;;4.56;100.00;100976.78;5048900;28;20080;-72
2022/01/08 07:53:38;;;;;;;6.65;1.90;;;;;;;4.51;100.00;100974.78;5045993;28;20493;-72
2022/01/08 07:56:04;;;;;;;6.68;2.10;;;;;;;4.50;100.00;100972.31;5058920;28;20052;-71
2022/01/08 07:58:29;;;;;;;7.55;2.20;;;;;;;4.39;100.00;100963.94;5036328;28;20106;-70
2022/01/08 08:00:55;;;;;;;5.55;2.35;;;;;;;4.42;100.00;100954.47;5043911;28;20106;-71
2022/01/08 08:03:22;;;;;;;6.10;2.10;;;;;;;4.42;100.00;100943.63;5012598;28;20395;-72
2022/01/08 08:05:47;;;;;;;4.47;2.58;;;;;;;4.45;100.00;100947.75;5044364;28;20123;-71
2022/01/08 08:08:17;;;;;;;5.72;1.95;;;;;;;4.52;100.00;100943.00;5045095;28;20108;-71
2022/01/08 08:10:44;;;;;;;7.40;2.30;;;;;;;4.50;100.00;100935.09;5042159;28;20110;-71
2022/01/08 08:13:10;;;;;;;6.95;2.50;;;;;;;4.56;100.00;100942.31;5047507;28;20107;-71
2022/01/08 08:15:35;;;;;;;7.13;2.22;;;;;;;4.64;100.00;100934.84;5062536;28;20115;-71
2022/01/08 08:18:00;;;;;;;10.43;2.30;;;;;;;4.61;100.00;100928.00;5064349;28;20037;-71
2022/01/08 08:20:26;;;;;;;7.38;2.10;;;;;;;4.59;100.00;100925.53;5030698;28;20415;-70
2022/01/08 08:22:52;;;;;;;6.80;2.80;;;;;;;4.45;100.00;100915.19;5031262;28;20028;-71
2022/01/08 08:25:17;;;;;;;8.32;2.70;;;;;;;4.46;100.00;100912.22;5048572;28;20404;-71
2022/01/08 08:27:44;;;;;;;6.18;2.42;;;;;;;4.56;100.00;100925.19;5009570;28;20056;-72
2022/01/08 08:30:10;;;;;;;7.25;2.35;;;;;;;4.45;100.00;100909.75;5041830;28;20107;-71
2022/01/08 08:32:36;;;;;;;8.07;2.30;;;;;;;4.55;100.00;100904.53;5050220;28;20127;-71
2022/01/08 08:35:03;;;;;;;6.63;2.10;;;;;;;4.44;100.00;100903.47;5064859;28;20295;-71
2022/01/08 08:37:28;;;;;;;7.40;2.30;;;;;;;4.60;100.00;100904.63;5045623;28;20029;-70
2022/01/08 08:39:54;;;;;;;6.95;2.17;;;;;;;4.72;100.00;100899.16;5027103;28;20450;-70
2022/01/08 08:42:19;;;;;;;7.05;2.03;;;;;;;4.59;100.00;100901.09;5066505;28;20054;-70
2022/01/08 08:44:45;;;;;;;4.65;1.60;;;;;;;4.69;100.00;100900.47;5057291;28;20532;-71
2022/01/08 08:47:10;;;;;;;7.53;2.72;;;;;;;4.65;100.00;100891.16;5065363;28;20078;-70
2022/01/08 08:49:36;;;;;;;10.27;2.35;;;;;;;4.81;100.00;100896.91;5045842;28;20043;-70
2022/01/08 08:52:01;;;;;;;5.72;2.47;;;;;;;4.62;100.00;100886.19;5051942;28;20465;-71
2022/01/08 08:54:28;;;;;;;9.57;2.33;;;;;;;4.46;100.00;100900.53;5041858;28;20047;-71
2022/01/08 08:56:53;;;;;;;8.95;2.28;;;;;;;4.62;100.00;100896.25;5025630;28;20037;-71
2022/01/08 08:59:19;;;;;;;7.95;2.63;;;;;;;4.50;100.00;100890.84;5045854;28;20082;-71
2022/01/08 09:01:44;;;;;;;7.95;2.88;;;;;;;4.38;100.00;100878.13;5030788;28;20122;-71
2022/01/08 09:04:10;;;;;;;8.98;2.60;;;;;;;4.41;100.00;100871.38;5046062;28;20036;-71
2022/01/08 09:06:35;;;;;;;6.18;2.83;;;;;;;4.49;100.00;100867.47;5047483;28;20508;-71
2022/01/08 09:09:01;;;;;;;9.23;2.85;;;;;;;4.44;100.00;100864.66;5063534;28;20036;-70
2022/01/08 09:11:28;;;;;;;8.80;3.20;;;;;;;4.17;100.00;100862.50;5064671;28;20036;-71
2022/01/08 09:13:53;;;;;;;12.48;4.30;;;;;;;4.28;100.00;100863.50;5017908;28;20032;-71
2022/01/08 09:16:19;;;;;;;11.82;5.15;;;;;;;4.37;100.00;100853.94;5040910;28;20047;-71
2022/01/08 09:18:45;;;;;;;13.98;6.75;;;;;;;4.35;100.00;100850.66;5052531;28;20358;-71
2022/01/08 09:21:12;;;;;;;14.13;5.70;;;;;;;4.38;100.00;100850.16;5033044;28;20045;-71
2022/01/08 09:23:37;;;;;;;11.20;6.93;;;;;;;4.37;100.00;100837.66;5063945;28;20024;-71
2022/01/08 09:26:03;;;;;;;10.52;6.40;;;;;;;4.51;100.00;100843.59;5018269;28;20325;-71
2022/01/08 09:28:31;;;;;;;10.98;6.60;;;;;;;4.58;100.00;100828.03;5039612;28;20387;-71
2022/01/08 09:30:58;;;;;;;11.45;6.57;;;;;;;4.58;100.00;100817.16;5042706;28;20028;-70
2022/01/08 09:33:24;;;;;;;12.27;7.00;;;;;;;4.51;100.00;100811.88;5045709;28;20255;-71
2022/01/08 09:35:51;;;;;;;13.05;7.05;;;;;;;4.36;100.00;100811.56;5059802;28;20113;-71
2022/01/08 09:38:16;;;;;;;12.90;7.72;;;;;;;4.45;100.00;100812.03;5045565;28;20339;-71
2022/01/08 09:40:42;;;;;;;15.45;7.82;;;;;;;4.36;100.00;100815.13;5059477;28;20090;-71
2022/01/08 09:43:07;;;;;;;11.68;7.47;;;;;;;4.39;100.00;100811.94;5039066;28;20133;-71
2022/01/08 09:45:34;;;;;;;11.27;7.75;;;;;;;4.56;100.00;100803.00;5021716;28;20044;-70
2022/01/08 09:48:00;;;;;;;12.20;7.40;;;;;;;4.41;100.00;100793.50;5006700;28;20028;-71
2022/01/08 09:50:26;;;;;;;10.60;7.35;;;;;;;4.44;100.00;100797.59;5041012;28;20083;-72
2022/01/08 09:52:57;;;;;;;11.63;7.25;;;;;;;4.15;100.00;100785.91;5049340;28;20512;-71
2022/01/08 09:55:23;;;;;;;14.40;7.40;;;;;;;4.64;100.00;100793.63;5025712;28;20036;-71
2022/01/08 09:57:49;;;;;;;17.42;8.38;;;;;;;4.39;100.00;100776.63;5021608;28;20119;-71
2022/01/08 10:00:16;;;;;;;13.35;6.82;;;;;;;4.62;100.00;100771.31;5046508;28;20531;-71
2022/01/08 10:02:44;;;;;;;14.20;7.75;;;;;;;4.67;100.00;100766.78;5043440;28;20434;-70
2022/01/08 10:05:12;;;;;;;13.20;7.13;;;;;;;4.52;100.00;100758.38;5041580;28;20745;-70
2022/01/08 10:07:38;;;;;;;11.90;7.45;;;;;;;4.72;100.00;100745.19;5040202;28;20056;-70
2022/01/08 10:10:12;;;;;;;11.80;7.75;;;;;;;4.55;100.00;100741.63;5026246;28;20033;-70
2022/01/08 10:12:55;;;;;;;13.00;6.85;;;;;;;4.68;100.00;100729.63;5042261;28;20154;-70
2022/01/08 10:18:30;;;;;;;13.55;7.43;;;;;;;4.72;100.00;100706.31;5064294;28;20066;-71
2022/01/08 10:20:56;;;;;;;9.77;6.88;;;;;;;4.66;100.00;100705.41;5059427;28;20496;-70
2022/01/08 10:23:27;;;;;;;12.18;7.25;;;;;;;4.80;100.00;100692.31;5047459;28;20028;-70
2022/01/08 10:26:02;;;;;;;9.05;6.47;;;;;;;4.89;100.00;100698.19;5059499;28;20503;-70
2022/01/08 10:28:38;;;;;;;9.98;6.28;;;;;;;4.84;100.00;100693.50;5053747;28;20028;-71
2022/01/08 10:31:13;;;;;;;9.57;5.78;;;;;;;4.81;100.00;100682.31;5047215;28;20029;-71
2022/01/08 10:33:40;;;;;;;9.82;5.97;;;;;;;5.04;100.00;100676.66;5059308;28;20402;-71
2022/01/08 10:36:06;;;;;;;8.15;5.00;;;;;;;4.94;100.00;100658.31;5051570;28;20059;-71
2022/01/08 10:38:32;;;;;;;7.35;5.07;;;;;;;5.00;100.00;100650.25;5042083;28;20065;-71
2022/01/08 10:40:59;;;;;;;6.70;4.68;;;;;;;5.11;100.00;100639.25;5021601;28;20319;-71
2022/01/08 10:43:27;;;;;;;9.18;4.55;;;;;;;5.41;100.00;100629.88;5040101;28;20460;-71
2022/01/08 10:45:55;;;;;;;9.43;4.25;;;;;;;5.03;100.00;100625.28;5037522;28;20056;-70
2022/01/08 10:48:29;;;;;;;9.32;3.97;;;;;;;5.11;100.00;100625.69;5052347;28;20029;-71
2022/01/08 10:51:08;;;;;;;7.15;3.70;;;;;;;5.24;100.00;100608.19;5041071;28;20511;-70
2022/01/08 10:54:02;;;;;;;8.05;3.40;;;;;;;5.42;100.00;100593.44;5060274;28;20051;-71
2022/01/08 10:56:32;;;;;;;8.30;3.60;;;;;;;5.68;100.00;100605.44;5061146;28;20051;-71
2022/01/08 10:59:01;;;;;;;3.88;2.90;;;;;;;5.70;100.00;100597.84;5059195;28;20023;-70
2022/01/08 11:01:56;;;;;;;5.72;2.83;;;;;;;5.63;100.00;100580.09;5058801;28;20115;-71
2022/01/08 11:04:37;;;;;;;5.38;2.53;;;;;;;5.52;100.00;100566.38;5062669;28;20115;-71
2022/01/08 11:07:07;;;;;;;4.82;2.30;;;;;;;5.71;100.00;100566.84;5058982;28;20028;-71
2022/01/08 11:09:34;;;;;;;7.63;2.65;;;;;;;5.65;100.00;100551.56;5061882;28;20122;-71
2022/01/08 11:12:01;;;;;;;4.93;3.47;;;;;;;5.67;100.00;100543.97;5051275;28;20522;-71
2022/01/08 11:17:37;;;;;;;6.20;2.20;;;;;;;5.76;100.00;100524.47;5040604;28;20097;-71
2022/01/08 11:20:05;;;;;;;;;;;;;;;5.68;100.00;100525.75;5039387;28;20048;-71
2022/01/08 11:22:33;;;;;;;7.18;2.40;;;;;;;5.51;100.00;100518.53;5042373;28;19948;-71
2022/01/08 11:25:03;;;;;;;7.95;2.55;;;;;;;5.77;100.00;100512.50;5041141;28;20539;-70
2022/01/08 11:27:40;;;;;;;7.90;2.58;;;;;;;5.49;100.00;100500.81;5041248;28;20071;-71
2022/01/08 11:30:19;;;;;;;7.85;2.95;;;;;;;5.47;100.00;100498.34;5037908;28;20037;-71
2022/01/08 11:32:46;;;;;;;7.75;3.03;;;;;;;5.51;100.00;100485.88;5042983;28;20480;-71
2022/01/08 11:35:13;;;;;;;8.82;2.38;;;;;;;5.67;100.00;100480.59;5028195;28;20029;-71
2022/01/08 11:37:45;;;;;;;6.78;2.45;;;;;;;5.47;100.00;100473.06;5049488;28;20518;-71
2022/01/08 11:40:13;;;;;;;6.85;3.75;;;;;;;5.59;100.00;100462.00;5065466;28;20027;-71
2022/01/08 11:42:40;;;;;;;5.57;3.22;;;;;;;5.57;100.00;100453.31;5057351;28;20056;-71
2022/01/08 11:45:08;;;;;;;12.32;4.10;;;;;;;5.35;100.00;100446.03;5041544;28;20017;-71
2022/01/08 11:47:35;;;;;;;7.50;3.63;;;;;;;5.39;100.00;100428.13;5046800;28;20490;-71
2022/01/08 11:50:04;;;;;;;8.85;3.33;;;;;;;5.57;100.00;100417.94;5008856;28;20289;-70
2022/01/08 11:52:29;;;;;;;6.55;3.78;;;;;;;5.46;100.00;100408.88;5045347;28;20037;-70